Terminal Aerodrome Forecast
Issued by NWS

Home | Current Version | Previous Version | Text Only | Print | Product List | Glossary On
Versions: 1 2 3 4 5 6 7 8 9 10 11 12 13 14 15 16
000
FTUS41 KBGM 251120
TAFRME
TAF
KRME 251120Z 2512/2612 09006KT P6SM SCT040 OVC120
      TEMPO 2512/2516 -SHRA OVC040
     FM251600 19006KT P6SM OVC090
      TEMPO 2516/2517 -SHRA OVC040
     FM251800 23010G20KT P6SM OVC035
     FM260000 10004KT P6SM BKN060 PROB30 2604/2608 5SM -TSRA
      OVC035CB=

USA.gov is the U.S. government's official web portal to all federal, state and local government web resources and services.